createdAt,value
2019-02-08T00:00:50.898Z,3.40
2019-02-08T00:03:17.855Z,2.80
2019-02-08T00:05:44.798Z,3.23
2019-02-08T00:08:11.740Z,2.97
2019-02-08T00:10:38.675Z,2.37
2019-02-08T00:13:05.684Z,3.10
2019-02-08T00:15:32.631Z,3.20
2019-02-08T00:17:59.580Z,2.83
2019-02-08T00:20:26.526Z,2.70
2019-02-08T00:22:53.488Z,3.00
2019-02-08T00:25:20.436Z,3.17
2019-02-08T00:27:47.363Z,3.27
2019-02-08T00:30:17.290Z,3.40
2019-02-08T00:32:44.228Z,3.40
2019-02-08T00:35:11.153Z,3.40
2019-02-08T00:37:38.123Z,3.33
2019-02-08T00:40:07.269Z,3.00
2019-02-08T00:42:34.204Z,3.17
2019-02-08T00:45:01.211Z,3.27
2019-02-08T00:47:28.173Z,3.10
2019-02-08T00:49:55.093Z,3.07
2019-02-08T00:52:22.048Z,3.00
2019-02-08T00:54:48.995Z,3.40
2019-02-08T00:57:16.337Z,3.07
2019-02-08T00:59:43.282Z,3.10
2019-02-08T01:02:10.207Z,3.37
2019-02-08T01:04:37.153Z,3.03
2019-02-08T01:07:04.124Z,3.10
2019-02-08T01:09:31.055Z,3.43
2019-02-08T01:11:58.000Z,3.13
2019-02-08T01:14:24.955Z,2.83
2019-02-08T01:16:51.897Z,2.90
2019-02-08T01:19:19.075Z,3.00
2019-02-08T01:21:46.054Z,2.57
2019-02-08T01:24:12.985Z,2.67
2019-02-08T01:26:39.923Z,2.77
2019-02-08T01:29:06.896Z,2.70
2019-02-08T01:31:33.841Z,3.00
2019-02-08T01:34:00.773Z,2.63
2019-02-08T01:36:27.815Z,3.00
2019-02-08T01:38:54.745Z,2.70
2019-02-08T01:41:21.684Z,2.77
2019-02-08T01:43:48.655Z,2.90
2019-02-08T01:46:15.607Z,2.47
2019-02-08T01:48:42.531Z,2.70
2019-02-08T01:51:09.467Z,2.80
2019-02-08T01:53:36.405Z,3.23
2019-02-08T01:56:03.358Z,3.03
2019-02-08T01:58:31.719Z,2.80
2019-02-08T02:00:58.648Z,2.93
2019-02-08T02:03:25.593Z,2.73
2019-02-08T02:05:52.551Z,2.93
2019-02-08T02:08:19.492Z,2.77
2019-02-08T02:10:46.436Z,2.77
2019-02-08T02:13:13.380Z,3.00
2019-02-08T02:15:40.317Z,2.47
2019-02-08T02:18:07.886Z,3.57
2019-02-08T02:20:36.729Z,2.57
2019-02-08T02:23:04.478Z,2.87
2019-02-08T02:25:31.420Z,3.20
2019-02-08T02:27:58.364Z,2.90
2019-02-08T02:30:28.555Z,2.80
2019-02-08T02:32:55.505Z,2.50
2019-02-08T02:35:22.465Z,2.80
2019-02-08T02:37:49.399Z,2.63
2019-02-08T02:40:16.350Z,2.77
2019-02-08T02:42:43.305Z,2.80
2019-02-08T02:45:15.596Z,2.20
2019-02-08T02:47:42.564Z,3.27
2019-02-08T02:50:09.590Z,2.73
2019-02-08T02:52:36.529Z,2.40
2019-02-08T02:55:03.815Z,2.77
2019-02-08T02:57:30.764Z,2.90
2019-02-08T02:59:58.057Z,2.63
2019-02-08T03:02:25.013Z,2.30
2019-02-08T03:04:51.960Z,2.50
2019-02-08T03:07:18.900Z,2.80
2019-02-08T03:09:45.857Z,2.50
2019-02-08T03:12:12.817Z,2.47
2019-02-08T03:14:39.755Z,2.57
2019-02-08T03:17:06.687Z,2.40
2019-02-08T03:19:33.642Z,2.67
2019-02-08T03:22:00.573Z,2.33
2019-02-08T03:24:27.513Z,2.10
2019-02-08T03:26:54.482Z,2.43
2019-02-08T03:29:21.433Z,2.57
2019-02-08T03:31:48.409Z,2.30
2019-02-08T03:34:15.365Z,2.60
2019-02-08T03:36:42.308Z,2.00
2019-02-08T03:39:09.254Z,2.50
2019-02-08T03:41:36.220Z,2.27
2019-02-08T03:44:03.165Z,2.10
2019-02-08T03:46:30.095Z,2.27
2019-02-08T03:48:57.049Z,2.20
2019-02-08T03:51:24.032Z,2.50
2019-02-08T03:53:50.957Z,2.07
2019-02-08T03:56:17.897Z,2.30
2019-02-08T03:58:44.856Z,2.70
2019-02-08T04:01:14.066Z,2.20
2019-02-08T04:03:41.020Z,2.17
2019-02-08T04:06:07.952Z,2.20
2019-02-08T04:08:34.931Z,2.00
2019-02-08T04:11:01.840Z,2.50
2019-02-08T04:13:28.844Z,2.07
2019-02-08T04:15:55.795Z,2.63
2019-02-08T04:18:22.752Z,2.40
2019-02-08T04:20:49.695Z,2.40
2019-02-08T04:23:16.629Z,2.27
2019-02-08T04:25:43.601Z,2.60
2019-02-08T04:28:10.542Z,2.23
2019-02-08T04:30:37.473Z,2.47
2019-02-08T04:33:04.805Z,2.37
2019-02-08T04:35:31.736Z,2.50
2019-02-08T04:37:58.665Z,2.40
2019-02-08T04:40:25.651Z,2.50
2019-02-08T04:42:52.574Z,2.40
2019-02-08T04:45:19.544Z,2.23
2019-02-08T04:47:46.493Z,2.10
2019-02-08T04:50:15.980Z,2.50
2019-02-08T04:52:42.949Z,2.30
2019-02-08T04:55:09.941Z,2.10
2019-02-08T04:57:36.896Z,2.60
2019-02-08T05:00:06.945Z,2.50
2019-02-08T05:02:35.473Z,2.27
2019-02-08T05:05:02.464Z,2.60
2019-02-08T05:07:29.407Z,2.47
2019-02-08T05:09:56.395Z,1.93
2019-02-08T05:12:23.348Z,2.90
2019-02-08T05:14:50.268Z,2.77
2019-02-08T05:17:17.237Z,2.03
2019-02-08T05:19:44.188Z,2.27
2019-02-08T05:22:13.002Z,2.30
2019-02-08T05:24:45.813Z,2.60
2019-02-08T05:27:06.241Z,2.30
2019-02-08T05:29:33.168Z,2.30
2019-02-08T05:32:00.118Z,2.20
2019-02-08T05:34:27.071Z,2.03
2019-02-08T05:36:53.996Z,2.10
2019-02-08T05:39:20.988Z,2.50
2019-02-08T05:41:47.917Z,2.57
2019-02-08T05:44:14.895Z,2.70
2019-02-08T05:46:41.853Z,2.43
2019-02-08T05:49:08.780Z,2.30
2019-02-08T05:51:35.720Z,2.30
2019-02-08T05:54:02.657Z,2.60
2019-02-08T05:56:29.615Z,2.03
2019-02-08T05:58:56.545Z,2.40
2019-02-08T06:01:23.512Z,2.50
2019-02-08T06:03:51.826Z,2.53
2019-02-08T06:06:18.771Z,2.50
2019-02-08T06:08:45.723Z,2.60
2019-02-08T06:11:12.667Z,2.83
2019-02-08T06:13:39.609Z,2.63
2019-02-08T06:16:06.557Z,2.90
2019-02-08T06:18:33.505Z,3.00
2019-02-08T06:21:00.496Z,2.77
2019-02-08T06:23:27.461Z,2.37
2019-02-08T06:25:54.419Z,2.70
2019-02-08T06:28:21.361Z,2.73
2019-02-08T06:30:48.616Z,2.47
2019-02-08T06:33:15.544Z,2.50
2019-02-08T06:35:42.506Z,2.80
2019-02-08T06:38:09.456Z,2.43
2019-02-08T06:40:39.164Z,2.40
2019-02-08T06:43:06.092Z,2.37
2019-02-08T06:45:33.078Z,3.23
2019-02-08T06:48:00.036Z,3.03
2019-02-08T06:50:26.975Z,2.53
2019-02-08T06:52:53.929Z,2.80
2019-02-08T06:55:20.913Z,2.93
2019-02-08T06:57:57.682Z,2.57
2019-02-08T07:00:32.853Z,2.50
2019-02-08T07:03:21.345Z,3.00
2019-02-08T07:05:55.401Z,2.73
2019-02-08T07:08:28.851Z,2.63
2019-02-08T07:11:06.231Z,2.90
2019-02-08T07:13:42.206Z,2.70
2019-02-08T07:16:15.906Z,3.00
2019-02-08T07:19:03.307Z,3.23
2019-02-08T07:21:38.779Z,3.20
2019-02-08T07:24:26.233Z,3.13
2019-02-08T07:26:59.074Z,3.03
2019-02-08T07:29:31.889Z,3.27
2019-02-08T07:32:06.200Z,3.30
2019-02-08T07:34:48.099Z,2.67
2019-02-08T07:37:20.812Z,2.83
2019-02-08T07:39:59.615Z,3.57
2019-02-08T07:42:46.188Z,2.77
2019-02-08T07:45:18.091Z,3.20
2019-02-08T07:48:00.964Z,2.93
2019-02-08T07:50:33.827Z,2.67
2019-02-08T07:53:10.252Z,3.53
2019-02-08T07:55:42.967Z,3.10
2019-02-08T07:58:16.224Z,2.70
2019-02-08T08:00:51.496Z,2.80
2019-02-08T08:03:24.327Z,2.73
2019-02-08T08:06:01.585Z,2.83
2019-02-08T08:08:49.079Z,2.93
2019-02-08T08:11:24.232Z,2.80
2019-02-08T08:14:05.406Z,3.07
2019-02-08T08:16:47.621Z,3.07
2019-02-08T08:19:27.457Z,2.90
2019-02-08T08:22:02.410Z,3.30
2019-02-08T08:24:35.561Z,3.00
2019-02-08T08:27:22.144Z,3.30
2019-02-08T08:30:09.981Z,3.37
2019-02-08T08:32:46.240Z,3.40
2019-02-08T08:35:30.189Z,2.80
2019-02-08T08:38:41.095Z,2.80
2019-02-08T08:41:35.241Z,2.90
2019-02-08T08:44:17.451Z,2.90
2019-02-08T08:46:58.584Z,2.87
2019-02-08T08:49:37.128Z,3.60
2019-02-08T08:52:13.463Z,2.90
2019-02-08T08:54:52.201Z,3.23
2019-02-08T08:57:51.149Z,2.70
2019-02-08T09:00:49.101Z,2.73
2019-02-08T09:03:46.429Z,2.60
2019-02-08T09:06:25.576Z,2.57
2019-02-08T09:09:12.474Z,2.80
2019-02-08T09:12:07.896Z,2.90
2019-02-08T09:15:02.984Z,2.90
2019-02-08T09:17:59.487Z,3.13
2019-02-08T09:21:07.597Z,2.70
2019-02-08T09:23:49.260Z,2.93
2019-02-08T09:26:37.613Z,2.53
2019-02-08T09:29:31.592Z,2.90
2019-02-08T09:32:29.872Z,3.00
2019-02-08T09:35:40.048Z,2.67
2019-02-08T09:38:34.615Z,3.50
2019-02-08T09:41:41.649Z,2.67
2019-02-08T09:44:44.586Z,2.70
2019-02-08T09:47:38.917Z,2.70
2019-02-08T09:50:22.940Z,2.80
2019-02-08T09:53:19.491Z,2.80
2019-02-08T09:55:59.891Z,2.60
2019-02-08T09:58:57.292Z,2.70
2019-02-08T10:01:49.148Z,2.47
2019-02-08T10:04:38.519Z,2.70
2019-02-08T10:07:24.309Z,2.40
2019-02-08T10:10:17.488Z,2.23
2019-02-08T10:13:10.719Z,2.80
2019-02-08T10:15:53.753Z,2.50
2019-02-08T10:18:32.475Z,3.42
2019-02-08T10:21:24.880Z,2.83
2019-02-08T10:24:24.964Z,2.67
2019-02-08T10:27:13.776Z,2.65
2019-02-08T10:29:53.659Z,2.70
2019-02-08T10:32:55.472Z,3.00
2019-02-08T10:35:53.851Z,2.80
2019-02-08T10:38:32.345Z,1.90
2019-02-08T10:41:30.630Z,2.22
2019-02-08T10:44:25.204Z,3.80
2019-02-08T10:47:21.773Z,2.25
2019-02-08T10:50:06.544Z,1.90
2019-02-08T10:53:03.764Z,2.35
2019-02-08T10:56:14.919Z,2.13
2019-02-08T10:59:10.088Z,2.00
2019-02-08T11:02:18.854Z,1.90
2019-02-08T11:05:01.191Z,1.63
2019-02-08T11:07:40.235Z,1.70
2019-02-08T11:10:36.688Z,1.50
2019-02-08T11:13:40.977Z,1.75
2019-02-08T11:16:42.348Z,1.60
2019-02-08T11:19:19.960Z,2.42
2019-02-08T11:21:48.177Z,1.85
2019-02-08T11:24:16.703Z,1.70
2019-02-08T11:26:43.717Z,1.60
2019-02-08T11:29:10.671Z,1.90
2019-02-08T11:31:37.616Z,1.80
2019-02-08T11:34:04.576Z,1.50
2019-02-08T11:36:31.499Z,1.43
2019-02-08T11:38:58.439Z,1.63
2019-02-08T11:41:25.406Z,1.60
2019-02-08T11:43:52.361Z,1.73
2019-02-08T11:46:19.301Z,1.70
2019-02-08T11:48:46.275Z,1.83
2019-02-08T11:51:14.801Z,1.80
2019-02-08T11:53:40.151Z,1.90
2019-02-08T11:56:07.116Z,2.30
2019-02-08T11:58:34.077Z,1.70
2019-02-08T12:01:01.004Z,1.73
2019-02-08T12:03:27.968Z,1.70
2019-02-08T12:05:54.926Z,1.73
2019-02-08T12:08:24.913Z,1.90
2019-02-08T12:10:51.877Z,1.70
2019-02-08T12:13:18.845Z,1.70
2019-02-08T12:15:45.823Z,1.47
2019-02-08T12:18:12.778Z,1.80
2019-02-08T12:20:39.719Z,1.80
2019-02-08T12:23:06.664Z,1.60
2019-02-08T12:25:33.614Z,1.57
2019-02-08T12:28:00.584Z,1.77
2019-02-08T12:30:30.540Z,1.80
2019-02-08T12:32:57.528Z,1.70
2019-02-08T12:35:24.485Z,1.60
2019-02-08T12:37:51.425Z,1.87
2019-02-08T12:40:18.385Z,1.47
2019-02-08T12:42:45.364Z,1.90
2019-02-08T12:45:12.338Z,1.63
2019-02-08T12:47:39.300Z,1.63
2019-02-08T12:50:06.732Z,1.67
2019-02-08T12:52:33.667Z,2.33
2019-02-08T12:55:00.622Z,1.50
2019-02-08T12:57:27.564Z,1.53
2019-02-08T12:59:54.511Z,1.70
2019-02-08T13:02:21.460Z,1.60
2019-02-08T13:04:48.419Z,1.50
2019-02-08T13:07:15.368Z,1.53
2019-02-08T13:09:43.844Z,1.77
2019-02-08T13:12:10.781Z,1.80
2019-02-08T13:14:37.719Z,1.60
2019-02-08T13:17:04.683Z,1.60
2019-02-08T13:19:31.613Z,1.80
2019-02-08T13:21:58.548Z,1.40
2019-02-08T13:24:25.515Z,1.67
2019-02-08T13:26:53.057Z,1.50
2019-02-08T13:29:19.389Z,2.43
2019-02-08T13:31:46.355Z,1.50
2019-02-08T13:34:13.287Z,1.20
2019-02-08T13:36:40.241Z,1.80
2019-02-08T13:39:08.121Z,1.63
2019-02-08T13:41:35.065Z,1.37
2019-02-08T13:44:02.002Z,1.83
2019-02-08T13:46:28.961Z,1.80
2019-02-08T13:48:55.904Z,1.60
2019-02-08T13:51:22.847Z,1.50
2019-02-08T13:53:49.796Z,1.33
2019-02-08T13:56:16.743Z,1.30
2019-02-08T13:58:43.664Z,1.30
2019-02-08T14:01:10.619Z,1.40
2019-02-08T14:03:37.577Z,1.50
2019-02-08T14:06:04.521Z,1.60
2019-02-08T14:08:31.475Z,1.33
2019-02-08T14:10:59.759Z,1.60
2019-02-08T14:13:26.707Z,1.60
2019-02-08T14:15:53.692Z,1.80
2019-02-08T14:18:20.635Z,1.63
2019-02-08T14:20:47.564Z,1.10
2019-02-08T14:23:14.521Z,1.50
2019-02-08T14:28:04.903Z,1.50
2019-02-08T14:30:33.661Z,1.60
2019-02-08T14:33:00.591Z,1.37
2019-02-08T14:35:27.633Z,1.47
2019-02-08T14:37:54.580Z,6.17
2019-02-08T14:40:21.781Z,3.60
2019-02-08T14:42:48.720Z,2.57
2019-02-08T14:45:15.685Z,1.33
2019-02-08T14:47:42.632Z,1.33
2019-02-08T14:50:12.285Z,1.47
2019-02-08T14:52:39.255Z,1.67
2019-02-08T14:55:06.446Z,1.50
2019-02-08T14:57:33.381Z,1.40
2019-02-08T15:00:00.370Z,1.40
2019-02-08T15:02:27.301Z,1.90
2019-02-08T15:04:54.252Z,1.00
2019-02-08T15:07:21.204Z,1.60
2019-02-08T15:09:48.134Z,1.30
2019-02-08T15:12:16.828Z,1.67
2019-02-08T15:14:43.802Z,1.33
2019-02-08T15:17:10.727Z,2.33
2019-02-08T15:19:37.664Z,1.70
2019-02-08T15:22:04.631Z,1.50
2019-02-08T15:24:31.568Z,2.50
2019-02-08T15:26:58.508Z,2.63
2019-02-08T15:29:25.467Z,3.60
2019-02-08T15:31:52.407Z,4.00
2019-02-08T15:34:19.347Z,2.03
2019-02-08T15:36:49.161Z,2.40
2019-02-08T15:39:13.232Z,2.70
2019-02-08T15:41:40.174Z,2.10
2019-02-08T15:44:07.143Z,1.60
2019-02-08T15:46:34.098Z,1.63
2019-02-08T15:49:01.038Z,2.33
2019-02-08T15:51:28.008Z,1.97
2019-02-08T15:53:54.940Z,2.23
2019-02-08T15:56:21.883Z,2.50
2019-02-08T15:58:48.835Z,2.60
2019-02-08T16:01:15.773Z,2.03
2019-02-08T16:03:42.716Z,2.30
2019-02-08T16:06:09.668Z,2.10
2019-02-08T16:08:36.644Z,2.03
2019-02-08T16:11:03.593Z,2.50
2019-02-08T16:13:30.953Z,2.50
2019-02-08T16:15:57.902Z,2.40
2019-02-08T16:18:24.827Z,2.90
2019-02-08T16:20:51.787Z,3.40
2019-02-08T16:23:18.722Z,3.10
2019-02-08T16:25:45.663Z,3.10
2019-02-08T16:28:12.606Z,3.57
2019-02-08T16:30:39.541Z,2.77
2019-02-08T16:33:06.481Z,2.40
2019-02-08T16:35:33.437Z,2.83
2019-02-08T16:38:00.360Z,2.77
2019-02-08T16:40:27.520Z,2.70
2019-02-08T16:42:54.467Z,2.77
2019-02-08T16:45:24.562Z,2.93
2019-02-08T16:47:52.307Z,2.40
2019-02-08T16:50:20.615Z,2.37
2019-02-08T16:52:47.561Z,2.70
2019-02-08T16:55:14.760Z,2.30
2019-02-08T16:57:47.645Z,2.30
2019-02-08T17:00:12.589Z,3.00
2019-02-08T17:02:39.508Z,5.07
2019-02-08T17:05:08.611Z,7.50
2019-02-08T17:07:35.563Z,14.37
2019-02-08T17:10:02.537Z,10.03
2019-02-08T17:12:29.773Z,13.47
2019-02-08T17:14:57.963Z,6.33
2019-02-08T17:17:24.899Z,5.43
2019-02-08T17:19:51.851Z,5.13
2019-02-08T17:22:18.783Z,6.63
2019-02-08T17:24:45.726Z,8.70
2019-02-08T17:27:12.696Z,5.17
2019-02-08T17:29:39.634Z,6.03
2019-02-08T17:32:06.554Z,8.03
2019-02-08T17:34:33.495Z,5.93
2019-02-08T17:37:00.458Z,5.27
2019-02-08T17:39:27.391Z,6.20
2019-02-08T17:41:54.344Z,4.07
2019-02-08T17:44:21.294Z,3.97
2019-02-08T17:46:48.221Z,3.67
2019-02-08T17:49:15.208Z,3.50
2019-02-08T17:51:42.148Z,3.83
2019-02-08T17:54:09.115Z,3.50
2019-02-08T17:56:36.071Z,3.43
2019-02-08T17:59:03.001Z,3.40
2019-02-08T18:01:29.968Z,3.13
2019-02-08T18:03:56.924Z,3.40
2019-02-08T18:06:23.855Z,3.30
2019-02-08T18:08:50.788Z,2.83
2019-02-08T18:11:17.755Z,3.83
2019-02-08T18:13:44.733Z,3.33
2019-02-08T18:16:12.024Z,2.97
2019-02-08T18:18:38.975Z,3.70
2019-02-08T18:21:08.705Z,3.10
2019-02-08T18:23:35.631Z,4.30
2019-02-08T18:26:02.596Z,4.20
2019-02-08T18:28:29.542Z,3.70
2019-02-08T18:30:56.493Z,3.40
2019-02-08T18:33:23.448Z,3.23
2019-02-08T18:35:50.389Z,3.20
2019-02-08T18:38:17.328Z,3.67
2019-02-08T18:40:44.304Z,3.10
2019-02-08T18:43:11.257Z,3.03
2019-02-08T18:45:38.184Z,2.87
2019-02-08T18:48:05.178Z,2.70
2019-02-08T18:50:34.447Z,2.80
2019-02-08T18:53:01.384Z,3.00
2019-02-08T18:55:28.341Z,3.07
2019-02-08T18:57:55.282Z,2.90
2019-02-08T19:00:24.524Z,2.77
2019-02-08T19:02:51.488Z,2.80
2019-02-08T19:05:18.423Z,3.37
2019-02-08T19:07:45.363Z,3.37
2019-02-08T19:10:14.241Z,2.80
2019-02-08T19:12:41.165Z,3.17
2019-02-08T19:15:09.450Z,3.07
2019-02-08T19:17:38.034Z,2.80
2019-02-08T19:20:06.408Z,2.73
2019-02-08T19:22:33.332Z,2.90
2019-02-08T19:25:00.320Z,3.10
2019-02-08T19:27:27.241Z,2.87
2019-02-08T19:29:54.173Z,3.30
2019-02-08T19:32:21.143Z,2.23
2019-02-08T19:34:48.085Z,2.90
2019-02-08T19:37:15.028Z,2.93
2019-02-08T19:39:41.992Z,3.27
2019-02-08T19:42:08.915Z,2.90
2019-02-08T19:44:35.848Z,3.07
2019-02-08T19:47:02.794Z,2.80
2019-02-08T19:49:29.752Z,2.73
2019-02-08T19:51:56.680Z,16.87
2019-02-08T19:54:24.064Z,5.30
2019-02-08T19:56:51.008Z,2.80
2019-02-08T19:59:17.950Z,3.17
2019-02-08T20:01:45.264Z,2.57
2019-02-08T20:04:11.858Z,2.87
2019-02-08T20:06:38.795Z,2.30
2019-02-08T20:09:07.873Z,2.10
2019-02-08T20:11:34.809Z,2.40
2019-02-08T20:14:01.776Z,2.33
2019-02-08T20:16:30.034Z,2.10
2019-02-08T20:18:58.760Z,2.30
2019-02-08T20:21:25.700Z,2.20
2019-02-08T20:23:52.668Z,2.40
2019-02-08T20:26:19.611Z,3.27
2019-02-08T20:28:46.545Z,3.57
2019-02-08T20:31:13.515Z,2.30
2019-02-08T20:33:40.441Z,2.00
2019-02-08T20:36:07.489Z,2.40
2019-02-08T20:38:34.403Z,2.43
2019-02-08T20:41:01.481Z,2.30
2019-02-08T20:43:28.471Z,2.80
2019-02-08T20:45:55.470Z,2.20
2019-02-08T20:48:22.613Z,2.20
2019-02-08T20:50:49.621Z,2.20
2019-02-08T20:53:16.628Z,2.50
2019-02-08T20:55:43.627Z,2.60
2019-02-08T20:58:11.032Z,2.20
2019-02-08T21:00:38.247Z,2.50
2019-02-08T21:03:09.109Z,2.30
2019-02-08T21:05:36.091Z,2.33
2019-02-08T21:08:03.843Z,2.40
2019-02-08T21:10:30.836Z,1.73
2019-02-08T21:12:57.830Z,2.10
2019-02-08T21:15:24.828Z,2.23
2019-02-08T21:17:51.792Z,2.03
2019-02-08T21:20:20.380Z,2.30
2019-02-08T21:22:47.405Z,2.40
2019-02-08T21:25:18.417Z,2.20
2019-02-08T21:27:45.409Z,2.83
2019-02-08T21:30:13.323Z,3.00
2019-02-08T21:32:40.292Z,2.83
2019-02-08T21:35:08.122Z,3.10
2019-02-08T21:37:35.118Z,3.53
2019-02-08T21:40:02.126Z,3.30
2019-02-08T21:42:29.109Z,3.93
2019-02-08T21:44:56.141Z,3.93
2019-02-08T21:47:23.104Z,3.97
2019-02-08T21:49:50.074Z,3.47
2019-02-08T21:52:17.070Z,3.13
2019-02-08T21:54:44.044Z,3.20
2019-02-08T21:57:11.025Z,2.90
2019-02-08T21:59:38.013Z,2.67
2019-02-08T22:02:05.037Z,3.63
2019-02-08T22:04:32.127Z,3.20
2019-02-08T22:06:59.139Z,3.17
2019-02-08T22:09:26.118Z,3.13
2019-02-08T22:11:53.081Z,2.93
2019-02-08T22:14:20.139Z,2.67
2019-02-08T22:16:47.120Z,2.60
2019-02-08T22:19:14.106Z,2.30
2019-02-08T22:21:41.572Z,2.50
2019-02-08T22:24:08.573Z,2.57
2019-02-08T22:26:35.568Z,2.70
2019-02-08T22:29:02.565Z,3.20
2019-02-08T22:31:29.572Z,2.97
2019-02-08T22:33:56.544Z,3.10
2019-02-08T22:36:23.540Z,3.20
2019-02-08T22:38:50.520Z,3.40
2019-02-08T22:41:17.508Z,3.07
2019-02-08T22:43:44.506Z,3.50
2019-02-08T22:46:11.499Z,4.20
2019-02-08T22:48:38.489Z,4.03
2019-02-08T22:51:05.499Z,3.90
2019-02-08T22:53:32.486Z,3.80
2019-02-08T22:55:59.477Z,4.30
2019-02-08T22:58:26.489Z,3.90
2019-02-08T23:01:18.832Z,4.23
2019-02-08T23:03:45.833Z,4.77
2019-02-08T23:06:12.833Z,3.70
2019-02-08T23:08:39.834Z,3.33
2019-02-08T23:11:06.832Z,4.23
2019-02-08T23:13:35.185Z,4.27
2019-02-08T23:16:02.107Z,4.13
2019-02-08T23:18:29.096Z,4.13
2019-02-08T23:20:56.116Z,4.20
2019-02-08T23:23:23.422Z,5.73
2019-02-08T23:25:50.447Z,4.60
2019-02-08T23:28:17.474Z,3.90
2019-02-08T23:30:44.482Z,3.80
2019-02-08T23:33:11.506Z,3.80
2019-02-08T23:35:43.081Z,3.77
2019-02-08T23:38:05.505Z,4.20
2019-02-08T23:40:32.538Z,3.63
2019-02-08T23:42:59.538Z,3.30
2019-02-08T23:45:26.529Z,2.77
2019-02-08T23:47:53.530Z,2.87
2019-02-08T23:50:20.567Z,2.90
2019-02-08T23:52:47.623Z,2.80
2019-02-08T23:55:14.650Z,2.47
2019-02-08T23:57:41.670Z,2.53
